sensor_id;sensor_type;location;lat;lon;timestamp;P1;durP1;ratioP1;P2;durP2;ratioP2
10963;SDS011;5534;48.784;9.190;2022-11-15T00:01:54;8.27;;;5.63;;
10963;SDS011;5534;48.784;9.190;2022-11-15T00:04:20;5.93;;;3.50;;
10963;SDS011;5534;48.784;9.190;2022-11-15T00:06:45;5.60;;;2.77;;
10963;SDS011;5534;48.784;9.190;2022-11-15T00:09:11;4.47;;;3.00;;
10963;SDS011;5534;48.784;9.190;2022-11-15T00:11:37;5.17;;;2.80;;
10963;SDS011;5534;48.784;9.190;2022-11-15T00:14:03;3.17;;;2.50;;
10963;SDS011;5534;48.784;9.190;2022-11-15T00:16:28;4.87;;;2.83;;
10963;SDS011;5534;48.784;9.190;2022-11-15T00:18:54;6.00;;;3.67;;
10963;SDS011;5534;48.784;9.190;2022-11-15T00:21:20;5.63;;;3.50;;
10963;SDS011;5534;48.784;9.190;2022-11-15T00:23:45;6.93;;;2.90;;
10963;SDS011;5534;48.784;9.190;2022-11-15T00:26:12;4.60;;;2.97;;
10963;SDS011;5534;48.784;9.190;2022-11-15T00:28:39;3.33;;;2.50;;
10963;SDS011;5534;48.784;9.190;2022-11-15T00:31:09;3.37;;;2.40;;
10963;SDS011;5534;48.784;9.190;2022-11-15T00:33:38;3.10;;;2.10;;
10963;SDS011;5534;48.784;9.190;2022-11-15T00:36:05;3.30;;;2.30;;
10963;SDS011;5534;48.784;9.190;2022-11-15T00:38:34;4.13;;;2.77;;
10963;SDS011;5534;48.784;9.190;2022-11-15T00:41:02;3.40;;;2.20;;
10963;SDS011;5534;48.784;9.190;2022-11-15T00:43:29;4.40;;;2.30;;
10963;SDS011;5534;48.784;9.190;2022-11-15T00:45:55;2.57;;;1.77;;
10963;SDS011;5534;48.784;9.190;2022-11-15T00:48:21;3.07;;;1.80;;
10963;SDS011;5534;48.784;9.190;2022-11-15T00:50:47;2.27;;;1.87;;
10963;SDS011;5534;48.784;9.190;2022-11-15T00:53:13;3.33;;;2.30;;
10963;SDS011;5534;48.784;9.190;2022-11-15T00:55:39;4.00;;;2.27;;
10963;SDS011;5534;48.784;9.190;2022-11-15T00:58:05;4.37;;;2.10;;
10963;SDS011;5534;48.784;9.190;2022-11-15T01:00:30;2.83;;;2.17;;
10963;SDS011;5534;48.784;9.190;2022-11-15T01:02:56;3.63;;;2.07;;
10963;SDS011;5534;48.784;9.190;2022-11-15T01:05:22;2.53;;;1.70;;
10963;SDS011;5534;48.784;9.190;2022-11-15T01:07:51;2.20;;;1.83;;
10963;SDS011;5534;48.784;9.190;2022-11-15T01:10:20;1.50;;;1.40;;
10963;SDS011;5534;48.784;9.190;2022-11-15T01:12:47;4.27;;;1.60;;
10963;SDS011;5534;48.784;9.190;2022-11-15T01:15:13;6.43;;;2.33;;
10963;SDS011;5534;48.784;9.190;2022-11-15T01:17:38;3.77;;;2.07;;
10963;SDS011;5534;48.784;9.190;2022-11-15T01:20:04;2.27;;;1.80;;
10963;SDS011;5534;48.784;9.190;2022-11-15T01:22:39;2.73;;;2.13;;
10963;SDS011;5534;48.784;9.190;2022-11-15T01:25:05;3.47;;;2.00;;
10963;SDS011;5534;48.784;9.190;2022-11-15T01:27:31;2.00;;;1.67;;
10963;SDS011;5534;48.784;9.190;2022-11-15T01:29:57;4.43;;;2.07;;
10963;SDS011;5534;48.784;9.190;2022-11-15T01:32:22;2.50;;;1.87;;
10963;SDS011;5534;48.784;9.190;2022-11-15T01:34:48;3.83;;;2.27;;
10963;SDS011;5534;48.784;9.190;2022-11-15T01:37:14;3.37;;;2.10;;
10963;SDS011;5534;48.784;9.190;2022-11-15T01:39:40;2.73;;;1.97;;
10963;SDS011;5534;48.784;9.190;2022-11-15T01:42:05;3.07;;;2.13;;
10963;SDS011;5534;48.784;9.190;2022-11-15T01:47:00;3.50;;;2.10;;
10963;SDS011;5534;48.784;9.190;2022-11-15T01:50:00;5.60;;;2.57;;
10963;SDS011;5534;48.784;9.190;2022-11-15T01:52:30;5.47;;;2.30;;
10963;SDS011;5534;48.784;9.190;2022-11-15T01:55:03;3.93;;;2.03;;
10963;SDS011;5534;48.784;9.190;2022-11-15T01:57:34;3.03;;;2.10;;
10963;SDS011;5534;48.784;9.190;2022-11-15T02:00:00;3.83;;;2.23;;
10963;SDS011;5534;48.784;9.190;2022-11-15T02:02:29;3.47;;;1.93;;
10963;SDS011;5534;48.784;9.190;2022-11-15T02:04:55;3.10;;;1.90;;
10963;SDS011;5534;48.784;9.190;2022-11-15T02:07:22;2.57;;;1.87;;
10963;SDS011;5534;48.784;9.190;2022-11-15T02:09:48;3.03;;;2.00;;
10963;SDS011;5534;48.784;9.190;2022-11-15T02:12:16;3.57;;;2.10;;
10963;SDS011;5534;48.784;9.190;2022-11-15T02:14:45;3.00;;;2.07;;
10963;SDS011;5534;48.784;9.190;2022-11-15T02:28:33;3.27;;;1.97;;
10963;SDS011;5534;48.784;9.190;2022-11-15T02:34:04;3.13;;;2.20;;
10963;SDS011;5534;48.784;9.190;2022-11-15T02:36:48;4.03;;;2.37;;
10963;SDS011;5534;48.784;9.190;2022-11-15T02:39:35;2.50;;;1.87;;
10963;SDS011;5534;48.784;9.190;2022-11-15T02:42:26;4.57;;;2.57;;
10963;SDS011;5534;48.784;9.190;2022-11-15T02:45:23;3.17;;;2.07;;
10963;SDS011;5534;48.784;9.190;2022-11-15T02:47:54;2.70;;;1.83;;
10963;SDS011;5534;48.784;9.190;2022-11-15T02:50:24;2.37;;;1.93;;
10963;SDS011;5534;48.784;9.190;2022-11-15T02:52:53;8.50;;;2.43;;
10963;SDS011;5534;48.784;9.190;2022-11-15T02:55:29;6.87;;;2.40;;
10963;SDS011;5534;48.784;9.190;2022-11-15T03:00:54;2.47;;;2.10;;
10963;SDS011;5534;48.784;9.190;2022-11-15T03:11:17;4.23;;;2.70;;
10963;SDS011;5534;48.784;9.190;2022-11-15T03:13:53;3.83;;;2.70;;
10963;SDS011;5534;48.784;9.190;2022-11-15T03:16:32;4.57;;;2.20;;
10963;SDS011;5534;48.784;9.190;2022-11-15T03:19:04;4.40;;;1.80;;
10963;SDS011;5534;48.784;9.190;2022-11-15T03:21:37;2.57;;;1.80;;
10963;SDS011;5534;48.784;9.190;2022-11-15T03:24:05;3.33;;;2.27;;
10963;SDS011;5534;48.784;9.190;2022-11-15T03:26:33;4.13;;;2.13;;
10963;SDS011;5534;48.784;9.190;2022-11-15T03:29:03;4.63;;;2.20;;
10963;SDS011;5534;48.784;9.190;2022-11-15T03:31:36;3.23;;;2.10;;
10963;SDS011;5534;48.784;9.190;2022-11-15T03:34:25;4.00;;;1.90;;
10963;SDS011;5534;48.784;9.190;2022-11-15T03:36:56;3.57;;;2.10;;
10963;SDS011;5534;48.784;9.190;2022-11-15T03:39:22;3.17;;;1.87;;
10963;SDS011;5534;48.784;9.190;2022-11-15T03:41:56;5.17;;;2.10;;
10963;SDS011;5534;48.784;9.190;2022-11-15T03:44:36;3.00;;;2.10;;
10963;SDS011;5534;48.784;9.190;2022-11-15T03:47:21;2.97;;;2.00;;
10963;SDS011;5534;48.784;9.190;2022-11-15T03:49:50;3.13;;;2.10;;
10963;SDS011;5534;48.784;9.190;2022-11-15T03:52:19;2.67;;;1.70;;
10963;SDS011;5534;48.784;9.190;2022-11-15T03:54:50;1.87;;;1.50;;
10963;SDS011;5534;48.784;9.190;2022-11-15T03:57:17;2.53;;;1.90;;
10963;SDS011;5534;48.784;9.190;2022-11-15T03:59:43;3.27;;;1.80;;
10963;SDS011;5534;48.784;9.190;2022-11-15T04:02:09;3.00;;;1.70;;
10963;SDS011;5534;48.784;9.190;2022-11-15T04:04:35;3.00;;;1.93;;
10963;SDS011;5534;48.784;9.190;2022-11-15T04:07:01;2.57;;;2.23;;
10963;SDS011;5534;48.784;9.190;2022-11-15T04:09:26;3.80;;;2.57;;
10963;SDS011;5534;48.784;9.190;2022-11-15T04:11:52;2.80;;;2.50;;
10963;SDS011;5534;48.784;9.190;2022-11-15T04:14:18;3.17;;;2.50;;
10963;SDS011;5534;48.784;9.190;2022-11-15T04:16:44;5.27;;;3.00;;
10963;SDS011;5534;48.784;9.190;2022-11-15T04:19:09;3.33;;;2.53;;
10963;SDS011;5534;48.784;9.190;2022-11-15T04:21:53;4.30;;;3.03;;
10963;SDS011;5534;48.784;9.190;2022-11-15T04:24:38;4.27;;;2.70;;
10963;SDS011;5534;48.784;9.190;2022-11-15T04:27:03;4.27;;;3.00;;
10963;SDS011;5534;48.784;9.190;2022-11-15T04:29:29;4.17;;;2.80;;
10963;SDS011;5534;48.784;9.190;2022-11-15T04:32:02;2.93;;;2.13;;
10963;SDS011;5534;48.784;9.190;2022-11-15T04:34:28;4.33;;;2.20;;
10963;SDS011;5534;48.784;9.190;2022-11-15T04:36:55;2.83;;;2.13;;
10963;SDS011;5534;48.784;9.190;2022-11-15T04:39:42;6.97;;;2.80;;
10963;SDS011;5534;48.784;9.190;2022-11-15T04:42:08;6.00;;;2.00;;
10963;SDS011;5534;48.784;9.190;2022-11-15T04:44:35;4.03;;;2.30;;
10963;SDS011;5534;48.784;9.190;2022-11-15T04:47:01;2.10;;;1.87;;
10963;SDS011;5534;48.784;9.190;2022-11-15T04:49:27;2.90;;;1.87;;
10963;SDS011;5534;48.784;9.190;2022-11-15T04:51:52;4.90;;;1.77;;
10963;SDS011;5534;48.784;9.190;2022-11-15T04:54:18;3.10;;;2.10;;
10963;SDS011;5534;48.784;9.190;2022-11-15T04:56:44;3.10;;;2.07;;
10963;SDS011;5534;48.784;9.190;2022-11-15T04:59:10;4.03;;;2.07;;
10963;SDS011;5534;48.784;9.190;2022-11-15T05:01:36;3.30;;;2.10;;
10963;SDS011;5534;48.784;9.190;2022-11-15T05:04:02;2.10;;;1.70;;
10963;SDS011;5534;48.784;9.190;2022-11-15T05:06:46;2.03;;;1.53;;
10963;SDS011;5534;48.784;9.190;2022-11-15T05:09:13;2.77;;;1.80;;
10963;SDS011;5534;48.784;9.190;2022-11-15T05:11:39;2.03;;;1.80;;
10963;SDS011;5534;48.784;9.190;2022-11-15T05:14:05;3.63;;;2.00;;
10963;SDS011;5534;48.784;9.190;2022-11-15T05:16:30;2.43;;;1.90;;
10963;SDS011;5534;48.784;9.190;2022-11-15T05:18:56;3.57;;;1.90;;
10963;SDS011;5534;48.784;9.190;2022-11-15T05:21:22;3.23;;;2.10;;
10963;SDS011;5534;48.784;9.190;2022-11-15T05:23:47;4.30;;;1.90;;
10963;SDS011;5534;48.784;9.190;2022-11-15T05:26:16;1.97;;;1.70;;
10963;SDS011;5534;48.784;9.190;2022-11-15T05:28:43;3.57;;;2.40;;
10963;SDS011;5534;48.784;9.190;2022-11-15T05:31:10;3.33;;;1.93;;
10963;SDS011;5534;48.784;9.190;2022-11-15T05:33:39;5.70;;;2.17;;
10963;SDS011;5534;48.784;9.190;2022-11-15T05:36:15;3.10;;;1.80;;
10963;SDS011;5534;48.784;9.190;2022-11-15T05:38:51;4.70;;;2.20;;
10963;SDS011;5534;48.784;9.190;2022-11-15T05:41:18;1.90;;;1.60;;
10963;SDS011;5534;48.784;9.190;2022-11-15T05:43:46;2.90;;;1.90;;
10963;SDS011;5534;48.784;9.190;2022-11-15T05:46:13;3.77;;;2.17;;
10963;SDS011;5534;48.784;9.190;2022-11-15T05:48:40;3.93;;;2.50;;
10963;SDS011;5534;48.784;9.190;2022-11-15T05:51:09;3.90;;;2.40;;
10963;SDS011;5534;48.784;9.190;2022-11-15T05:53:38;4.43;;;2.77;;
10963;SDS011;5534;48.784;9.190;2022-11-15T05:56:04;6.70;;;4.00;;
10963;SDS011;5534;48.784;9.190;2022-11-15T05:58:32;5.40;;;3.77;;
10963;SDS011;5534;48.784;9.190;2022-11-15T06:00:58;6.73;;;3.33;;
10963;SDS011;5534;48.784;9.190;2022-11-15T06:03:24;5.37;;;3.27;;
10963;SDS011;5534;48.784;9.190;2022-11-15T06:05:50;5.53;;;3.27;;
10963;SDS011;5534;48.784;9.190;2022-11-15T06:08:16;4.67;;;3.17;;
10963;SDS011;5534;48.784;9.190;2022-11-15T06:10:43;5.03;;;3.53;;
10963;SDS011;5534;48.784;9.190;2022-11-15T06:13:08;4.93;;;3.43;;
10963;SDS011;5534;48.784;9.190;2022-11-15T06:15:34;7.63;;;3.73;;
10963;SDS011;5534;48.784;9.190;2022-11-15T06:18:00;4.90;;;3.40;;
10963;SDS011;5534;48.784;9.190;2022-11-15T06:20:27;6.73;;;3.57;;
10963;SDS011;5534;48.784;9.190;2022-11-15T06:23:01;3.90;;;2.93;;
10963;SDS011;5534;48.784;9.190;2022-11-15T06:25:28;4.97;;;2.50;;
10963;SDS011;5534;48.784;9.190;2022-11-15T06:27:56;5.07;;;3.33;;
10963;SDS011;5534;48.784;9.190;2022-11-15T06:30:23;7.77;;;4.17;;
10963;SDS011;5534;48.784;9.190;2022-11-15T06:32:50;5.20;;;3.67;;
10963;SDS011;5534;48.784;9.190;2022-11-15T06:35:17;3.63;;;2.70;;
10963;SDS011;5534;48.784;9.190;2022-11-15T06:37:43;3.40;;;2.53;;
10963;SDS011;5534;48.784;9.190;2022-11-15T06:40:09;4.17;;;2.60;;
10963;SDS011;5534;48.784;9.190;2022-11-15T06:42:35;3.53;;;2.33;;
10963;SDS011;5534;48.784;9.190;2022-11-15T06:45:01;3.63;;;2.30;;
10963;SDS011;5534;48.784;9.190;2022-11-15T06:47:27;8.73;;;2.53;;
10963;SDS011;5534;48.784;9.190;2022-11-15T06:49:53;4.77;;;2.63;;
10963;SDS011;5534;48.784;9.190;2022-11-15T06:52:19;5.43;;;3.73;;
10963;SDS011;5534;48.784;9.190;2022-11-15T06:54:44;5.27;;;2.80;;
10963;SDS011;5534;48.784;9.190;2022-11-15T06:57:10;4.13;;;2.23;;
10963;SDS011;5534;48.784;9.190;2022-11-15T06:59:36;3.77;;;2.20;;
10963;SDS011;5534;48.784;9.190;2022-11-15T07:02:02;3.73;;;2.10;;
10963;SDS011;5534;48.784;9.190;2022-11-15T07:04:28;9.67;;;5.10;;
10963;SDS011;5534;48.784;9.190;2022-11-15T07:06:54;6.57;;;3.83;;
10963;SDS011;5534;48.784;9.190;2022-11-15T07:09:20;7.47;;;3.17;;
10963;SDS011;5534;48.784;9.190;2022-11-15T07:11:45;7.23;;;3.17;;
10963;SDS011;5534;48.784;9.190;2022-11-15T07:14:11;8.50;;;3.90;;
10963;SDS011;5534;48.784;9.190;2022-11-15T07:16:37;5.77;;;2.97;;
10963;SDS011;5534;48.784;9.190;2022-11-15T07:19:03;4.40;;;3.03;;
10963;SDS011;5534;48.784;9.190;2022-11-15T07:21:28;6.80;;;4.10;;
10963;SDS011;5534;48.784;9.190;2022-11-15T07:23:54;4.17;;;2.63;;
10963;SDS011;5534;48.784;9.190;2022-11-15T07:26:20;4.53;;;2.50;;
10963;SDS011;5534;48.784;9.190;2022-11-15T07:28:46;3.93;;;2.30;;
10963;SDS011;5534;48.784;9.190;2022-11-15T07:31:12;4.27;;;3.00;;
10963;SDS011;5534;48.784;9.190;2022-11-15T07:33:38;6.90;;;3.37;;
10963;SDS011;5534;48.784;9.190;2022-11-15T07:36:04;3.57;;;2.40;;
10963;SDS011;5534;48.784;9.190;2022-11-15T07:38:31;3.73;;;1.90;;
10963;SDS011;5534;48.784;9.190;2022-11-15T07:44:00;5.43;;;2.90;;
10963;SDS011;5534;48.784;9.190;2022-11-15T07:46:26;4.07;;;2.70;;
10963;SDS011;5534;48.784;9.190;2022-11-15T07:48:52;6.30;;;2.73;;
10963;SDS011;5534;48.784;9.190;2022-11-15T07:51:19;5.30;;;2.90;;
10963;SDS011;5534;48.784;9.190;2022-11-15T07:53:45;3.63;;;2.77;;
10963;SDS011;5534;48.784;9.190;2022-11-15T07:56:11;5.87;;;3.20;;
10963;SDS011;5534;48.784;9.190;2022-11-15T07:58:37;6.23;;;4.00;;
10963;SDS011;5534;48.784;9.190;2022-11-15T08:01:04;6.37;;;3.97;;
10963;SDS011;5534;48.784;9.190;2022-11-15T08:03:31;7.33;;;4.17;;
10963;SDS011;5534;48.784;9.190;2022-11-15T08:05:59;8.37;;;4.20;;
10963;SDS011;5534;48.784;9.190;2022-11-15T08:08:25;13.50;;;4.60;;
10963;SDS011;5534;48.784;9.190;2022-11-15T08:10:50;5.33;;;3.73;;
10963;SDS011;5534;48.784;9.190;2022-11-15T08:13:16;8.73;;;4.10;;
10963;SDS011;5534;48.784;9.190;2022-11-15T08:15:42;8.10;;;5.17;;
10963;SDS011;5534;48.784;9.190;2022-11-15T08:18:10;8.40;;;4.37;;
10963;SDS011;5534;48.784;9.190;2022-11-15T08:20:38;9.63;;;3.90;;
10963;SDS011;5534;48.784;9.190;2022-11-15T08:23:04;7.90;;;4.93;;
10963;SDS011;5534;48.784;9.190;2022-11-15T08:25:31;6.40;;;4.20;;
10963;SDS011;5534;48.784;9.190;2022-11-15T08:27:59;7.13;;;4.07;;
10963;SDS011;5534;48.784;9.190;2022-11-15T08:30:26;6.83;;;4.50;;
10963;SDS011;5534;48.784;9.190;2022-11-15T08:32:53;8.73;;;5.03;;
10963;SDS011;5534;48.784;9.190;2022-11-15T08:35:21;8.77;;;3.77;;
10963;SDS011;5534;48.784;9.190;2022-11-15T08:37:47;7.30;;;3.70;;
10963;SDS011;5534;48.784;9.190;2022-11-15T08:40:13;8.90;;;4.63;;
10963;SDS011;5534;48.784;9.190;2022-11-15T08:42:39;9.37;;;4.13;;
10963;SDS011;5534;48.784;9.190;2022-11-15T08:45:06;7.47;;;4.60;;
10963;SDS011;5534;48.784;9.190;2022-11-15T08:47:32;6.93;;;4.20;;
10963;SDS011;5534;48.784;9.190;2022-11-15T08:49:59;5.60;;;3.63;;
10963;SDS011;5534;48.784;9.190;2022-11-15T08:52:24;10.23;;;4.00;;
10963;SDS011;5534;48.784;9.190;2022-11-15T08:54:50;7.97;;;3.77;;
10963;SDS011;5534;48.784;9.190;2022-11-15T08:57:16;7.00;;;3.90;;
10963;SDS011;5534;48.784;9.190;2022-11-15T08:59:42;5.53;;;3.80;;
10963;SDS011;5534;48.784;9.190;2022-11-15T09:02:14;6.43;;;3.60;;
10963;SDS011;5534;48.784;9.190;2022-11-15T09:04:40;5.83;;;3.70;;
10963;SDS011;5534;48.784;9.190;2022-11-15T09:07:08;6.00;;;4.23;;
10963;SDS011;5534;48.784;9.190;2022-11-15T09:09:37;4.27;;;3.70;;
10963;SDS011;5534;48.784;9.190;2022-11-15T09:12:03;7.70;;;3.47;;
10963;SDS011;5534;48.784;9.190;2022-11-15T09:14:30;5.87;;;3.90;;
10963;SDS011;5534;48.784;9.190;2022-11-15T09:16:55;5.57;;;3.40;;
10963;SDS011;5534;48.784;9.190;2022-11-15T09:19:21;5.50;;;3.53;;
10963;SDS011;5534;48.784;9.190;2022-11-15T09:21:47;5.27;;;3.17;;
10963;SDS011;5534;48.784;9.190;2022-11-15T09:24:13;4.63;;;3.27;;
10963;SDS011;5534;48.784;9.190;2022-11-15T09:26:39;6.53;;;3.67;;
10963;SDS011;5534;48.784;9.190;2022-11-15T09:29:05;6.53;;;3.83;;
10963;SDS011;5534;48.784;9.190;2022-11-15T09:31:30;6.60;;;3.93;;
10963;SDS011;5534;48.784;9.190;2022-11-15T09:33:56;6.37;;;3.63;;
10963;SDS011;5534;48.784;9.190;2022-11-15T09:36:22;6.20;;;3.60;;
10963;SDS011;5534;48.784;9.190;2022-11-15T09:38:48;6.03;;;3.23;;
10963;SDS011;5534;48.784;9.190;2022-11-15T09:48:58;6.17;;;3.10;;
10963;SDS011;5534;48.784;9.190;2022-11-15T09:51:32;5.10;;;3.10;;
10963;SDS011;5534;48.784;9.190;2022-11-15T09:54:10;4.47;;;2.70;;
10963;SDS011;5534;48.784;9.190;2022-11-15T09:56:52;5.30;;;3.20;;
10963;SDS011;5534;48.784;9.190;2022-11-15T09:59:38;5.43;;;2.80;;
10963;SDS011;5534;48.784;9.190;2022-11-15T10:05:18;5.83;;;3.80;;
10963;SDS011;5534;48.784;9.190;2022-11-15T10:08:04;6.03;;;3.60;;
10963;SDS011;5534;48.784;9.190;2022-11-15T10:10:56;7.68;;;3.58;;
10963;SDS011;5534;48.784;9.190;2022-11-15T10:13:28;5.80;;;3.63;;
10963;SDS011;5534;48.784;9.190;2022-11-15T10:16:08;7.47;;;3.80;;
10963;SDS011;5534;48.784;9.190;2022-11-15T10:24:20;6.43;;;4.00;;
10963;SDS011;5534;48.784;9.190;2022-11-15T10:26:53;5.22;;;3.67;;
10963;SDS011;5534;48.784;9.190;2022-11-15T10:29:20;5.90;;;3.28;;
10963;SDS011;5534;48.784;9.190;2022-11-15T10:31:47;5.53;;;3.20;;
10963;SDS011;5534;48.784;9.190;2022-11-15T10:34:14;5.60;;;3.33;;
10963;SDS011;5534;48.784;9.190;2022-11-15T10:36:45;4.40;;;3.20;;
10963;SDS011;5534;48.784;9.190;2022-11-15T10:39:12;5.40;;;3.38;;
10963;SDS011;5534;48.784;9.190;2022-11-15T10:41:39;5.70;;;3.40;;
10963;SDS011;5534;48.784;9.190;2022-11-15T10:46:38;8.40;;;3.58;;
10963;SDS011;5534;48.784;9.190;2022-11-15T10:49:12;7.13;;;3.97;;
10963;SDS011;5534;48.784;9.190;2022-11-15T10:51:49;7.00;;;3.67;;
10963;SDS011;5534;48.784;9.190;2022-11-15T10:57:15;5.37;;;3.70;;
10963;SDS011;5534;48.784;9.190;2022-11-15T10:59:48;6.45;;;3.45;;
10963;SDS011;5534;48.784;9.190;2022-11-15T11:04:58;6.85;;;3.60;;
10963;SDS011;5534;48.784;9.190;2022-11-15T11:07:34;8.10;;;3.38;;
10963;SDS011;5534;48.784;9.190;2022-11-15T11:10:03;6.40;;;3.38;;
10963;SDS011;5534;48.784;9.190;2022-11-15T11:12:44;6.75;;;3.83;;
10963;SDS011;5534;48.784;9.190;2022-11-15T11:15:11;5.93;;;3.25;;
10963;SDS011;5534;48.784;9.190;2022-11-15T11:17:59;6.57;;;3.60;;
10963;SDS011;5534;48.784;9.190;2022-11-15T11:20:48;6.80;;;3.53;;
10963;SDS011;5534;48.784;9.190;2022-11-15T11:31:44;8.15;;;3.78;;
10963;SDS011;5534;48.784;9.190;2022-11-15T11:40:27;6.85;;;4.30;;
10963;SDS011;5534;48.784;9.190;2022-11-15T11:42:58;9.48;;;4.70;;
10963;SDS011;5534;48.784;9.190;2022-11-15T11:45:53;7.75;;;3.90;;
10963;SDS011;5534;48.784;9.190;2022-11-15T11:48:43;5.70;;;3.70;;
10963;SDS011;5534;48.784;9.190;2022-11-15T11:51:13;6.85;;;4.03;;
10963;SDS011;5534;48.784;9.190;2022-11-15T11:56:33;7.63;;;3.72;;
10963;SDS011;5534;48.784;9.190;2022-11-15T11:59:07;4.93;;;3.78;;
10963;SDS011;5534;48.784;9.190;2022-11-15T12:01:44;6.10;;;3.50;;
10963;SDS011;5534;48.784;9.190;2022-11-15T12:06:46;6.07;;;4.38;;
10963;SDS011;5534;48.784;9.190;2022-11-15T12:12:35;5.57;;;3.53;;
10963;SDS011;5534;48.784;9.190;2022-11-15T12:18:13;5.95;;;2.97;;
10963;SDS011;5534;48.784;9.190;2022-11-15T12:20:42;4.70;;;2.63;;
10963;SDS011;5534;48.784;9.190;2022-11-15T12:23:27;3.55;;;2.42;;
10963;SDS011;5534;48.784;9.190;2022-11-15T12:25:59;3.10;;;2.80;;
10963;SDS011;5534;48.784;9.190;2022-11-15T12:28:38;4.32;;;2.40;;
10963;SDS011;5534;48.784;9.190;2022-11-15T12:31:29;4.90;;;2.70;;
10963;SDS011;5534;48.784;9.190;2022-11-15T12:36:48;7.53;;;2.80;;
10963;SDS011;5534;48.784;9.190;2022-11-15T12:39:15;9.27;;;4.50;;
10963;SDS011;5534;48.784;9.190;2022-11-15T12:41:43;5.05;;;3.42;;
10963;SDS011;5534;48.784;9.190;2022-11-15T13:02:20;6.47;;;3.80;;
10963;SDS011;5534;48.784;9.190;2022-11-15T13:04:48;3.67;;;2.95;;
10963;SDS011;5534;48.784;9.190;2022-11-15T13:10:00;6.85;;;3.00;;
10963;SDS011;5534;48.784;9.190;2022-11-15T13:17:38;7.00;;;2.90;;
10963;SDS011;5534;48.784;9.190;2022-11-15T13:22:53;4.13;;;1.77;;
10963;SDS011;5534;48.784;9.190;2022-11-15T13:30:48;2.88;;;1.55;;
10963;SDS011;5534;48.784;9.190;2022-11-15T13:33:22;2.55;;;1.67;;
10963;SDS011;5534;48.784;9.190;2022-11-15T13:35:50;3.20;;;1.77;;
10963;SDS011;5534;48.784;9.190;2022-11-15T13:38:28;4.07;;;2.10;;
10963;SDS011;5534;48.784;9.190;2022-11-15T13:42:03;3.35;;;2.08;;
10963;SDS011;5534;48.784;9.190;2022-11-15T13:43:59;6.28;;;2.05;;
10963;SDS011;5534;48.784;9.190;2022-11-15T13:46:29;5.25;;;2.38;;
10963;SDS011;5534;48.784;9.190;2022-11-15T13:49:10;4.07;;;2.17;;
10963;SDS011;5534;48.784;9.190;2022-11-15T13:56:54;3.88;;;3.00;;
10963;SDS011;5534;48.784;9.190;2022-11-15T13:59:25;6.80;;;3.85;;
10963;SDS011;5534;48.784;9.190;2022-11-15T14:02:15;5.38;;;4.25;;
10963;SDS011;5534;48.784;9.190;2022-11-15T14:04:51;5.80;;;3.67;;
10963;SDS011;5534;48.784;9.190;2022-11-15T14:07:22;7.10;;;3.53;;
10963;SDS011;5534;48.784;9.190;2022-11-15T14:09:50;4.78;;;3.40;;
10963;SDS011;5534;48.784;9.190;2022-11-15T14:12:22;7.28;;;3.92;;
10963;SDS011;5534;48.784;9.190;2022-11-15T14:14:52;6.55;;;3.42;;
10963;SDS011;5534;48.784;9.190;2022-11-15T14:17:20;5.43;;;3.47;;
10963;SDS011;5534;48.784;9.190;2022-11-15T14:19:55;6.45;;;3.05;;
10963;SDS011;5534;48.784;9.190;2022-11-15T14:22:26;3.72;;;2.95;;
10963;SDS011;5534;48.784;9.190;2022-11-15T14:27:39;5.80;;;3.03;;
10963;SDS011;5534;48.784;9.190;2022-11-15T14:30:12;5.53;;;2.97;;
10963;SDS011;5534;48.784;9.190;2022-11-15T14:32:45;6.18;;;3.00;;
10963;SDS011;5534;48.784;9.190;2022-11-15T14:35:20;4.22;;;3.03;;
10963;SDS011;5534;48.784;9.190;2022-11-15T14:37:47;6.03;;;3.97;;
10963;SDS011;5534;48.784;9.190;2022-11-15T14:40:14;7.30;;;4.32;;
10963;SDS011;5534;48.784;9.190;2022-11-15T14:42:45;8.93;;;4.00;;
10963;SDS011;5534;48.784;9.190;2022-11-15T14:45:18;9.50;;;4.25;;
10963;SDS011;5534;48.784;9.190;2022-11-15T14:47:45;6.57;;;3.00;;
10963;SDS011;5534;48.784;9.190;2022-11-15T14:50:15;3.83;;;2.70;;
10963;SDS011;5534;48.784;9.190;2022-11-15T14:52:43;4.93;;;2.47;;
10963;SDS011;5534;48.784;9.190;2022-11-15T14:55:12;3.90;;;2.20;;
10963;SDS011;5534;48.784;9.190;2022-11-15T14:57:50;4.68;;;2.65;;
10963;SDS011;5534;48.784;9.190;2022-11-15T15:00:16;3.50;;;2.20;;
10963;SDS011;5534;48.784;9.190;2022-11-15T15:02:42;3.33;;;2.35;;
10963;SDS011;5534;48.784;9.190;2022-11-15T15:07:45;3.15;;;2.10;;
10963;SDS011;5534;48.784;9.190;2022-11-15T15:10:11;2.75;;;2.10;;
10963;SDS011;5534;48.784;9.190;2022-11-15T15:12:37;4.93;;;2.90;;
10963;SDS011;5534;48.784;9.190;2022-11-15T15:15:04;2.95;;;2.20;;
10963;SDS011;5534;48.784;9.190;2022-11-15T15:17:30;3.78;;;1.77;;
10963;SDS011;5534;48.784;9.190;2022-11-15T15:19:56;2.42;;;2.00;;
10963;SDS011;5534;48.784;9.190;2022-11-15T15:22:21;2.85;;;2.30;;
10963;SDS011;5534;48.784;9.190;2022-11-15T15:24:50;2.47;;;1.92;;
10963;SDS011;5534;48.784;9.190;2022-11-15T15:27:16;2.92;;;2.25;;
10963;SDS011;5534;48.784;9.190;2022-11-15T15:29:42;3.45;;;2.50;;
10963;SDS011;5534;48.784;9.190;2022-11-15T15:32:08;3.20;;;2.08;;
10963;SDS011;5534;48.784;9.190;2022-11-15T15:34:36;3.15;;;2.33;;
10963;SDS011;5534;48.784;9.190;2022-11-15T15:37:19;3.40;;;2.28;;
10963;SDS011;5534;48.784;9.190;2022-11-15T15:39:50;6.65;;;2.60;;
10963;SDS011;5534;48.784;9.190;2022-11-15T15:42:20;4.38;;;3.05;;
10963;SDS011;5534;48.784;9.190;2022-11-15T15:44:47;4.13;;;2.60;;
10963;SDS011;5534;48.784;9.190;2022-11-15T15:47:15;2.67;;;1.90;;
10963;SDS011;5534;48.784;9.190;2022-11-15T15:49:45;4.88;;;2.95;;
10963;SDS011;5534;48.784;9.190;2022-11-15T15:52:12;7.43;;;3.85;;
10963;SDS011;5534;48.784;9.190;2022-11-15T15:54:38;5.32;;;2.67;;
10963;SDS011;5534;48.784;9.190;2022-11-15T15:57:05;5.32;;;2.85;;
10963;SDS011;5534;48.784;9.190;2022-11-15T15:59:31;4.90;;;2.88;;
10963;SDS011;5534;48.784;9.190;2022-11-15T16:01:57;4.05;;;2.72;;
10963;SDS011;5534;48.784;9.190;2022-11-15T16:04:22;3.78;;;2.85;;
10963;SDS011;5534;48.784;9.190;2022-11-15T16:06:48;4.45;;;2.75;;
10963;SDS011;5534;48.784;9.190;2022-11-15T16:09:18;5.43;;;2.92;;
10963;SDS011;5534;48.784;9.190;2022-11-15T16:12:04;3.53;;;2.50;;
10963;SDS011;5534;48.784;9.190;2022-11-15T16:14:31;4.65;;;2.88;;
10963;SDS011;5534;48.784;9.190;2022-11-15T16:16:57;5.22;;;3.17;;
10963;SDS011;5534;48.784;9.190;2022-11-15T16:19:22;5.80;;;2.92;;
10963;SDS011;5534;48.784;9.190;2022-11-15T16:21:48;4.93;;;3.33;;
10963;SDS011;5534;48.784;9.190;2022-11-15T16:24:14;4.55;;;3.05;;
10963;SDS011;5534;48.784;9.190;2022-11-15T16:26:40;5.20;;;2.80;;
10963;SDS011;5534;48.784;9.190;2022-11-15T16:29:07;5.53;;;3.92;;
10963;SDS011;5534;48.784;9.190;2022-11-15T16:31:34;3.63;;;3.00;;
10963;SDS011;5534;48.784;9.190;2022-11-15T16:34:00;4.88;;;2.70;;
10963;SDS011;5534;48.784;9.190;2022-11-15T16:36:26;6.18;;;2.90;;
10963;SDS011;5534;48.784;9.190;2022-11-15T16:38:54;5.70;;;3.40;;
10963;SDS011;5534;48.784;9.190;2022-11-15T16:41:20;4.68;;;2.97;;
10963;SDS011;5534;48.784;9.190;2022-11-15T16:43:46;5.28;;;3.40;;
10963;SDS011;5534;48.784;9.190;2022-11-15T16:46:13;9.32;;;3.20;;
10963;SDS011;5534;48.784;9.190;2022-11-15T16:48:50;7.43;;;3.78;;
10963;SDS011;5534;48.784;9.190;2022-11-15T16:51:17;6.35;;;3.85;;
10963;SDS011;5534;48.784;9.190;2022-11-15T16:53:42;5.38;;;3.17;;
10963;SDS011;5534;48.784;9.190;2022-11-15T16:58:46;3.75;;;2.63;;
10963;SDS011;5534;48.784;9.190;2022-11-15T17:01:18;3.83;;;2.75;;
10963;SDS011;5534;48.784;9.190;2022-11-15T17:03:49;5.90;;;2.90;;
10963;SDS011;5534;48.784;9.190;2022-11-15T17:06:14;5.68;;;2.75;;
10963;SDS011;5534;48.784;9.190;2022-11-15T17:08:42;4.70;;;2.97;;
10963;SDS011;5534;48.784;9.190;2022-11-15T17:11:09;4.55;;;2.40;;
10963;SDS011;5534;48.784;9.190;2022-11-15T17:13:37;3.17;;;2.70;;
10963;SDS011;5534;48.784;9.190;2022-11-15T17:16:06;5.95;;;4.07;;
10963;SDS011;5534;48.784;9.190;2022-11-15T17:18:36;5.78;;;3.85;;
10963;SDS011;5534;48.784;9.190;2022-11-15T17:21:18;4.88;;;2.70;;
10963;SDS011;5534;48.784;9.190;2022-11-15T17:23:45;4.55;;;3.25;;
10963;SDS011;5534;48.784;9.190;2022-11-15T17:26:12;3.70;;;2.67;;